sensor_id;sensor_type;location;lat;lon;timestamp;P1;durP1;ratioP1;P2;durP2;ratioP2
24631;SDS011;59977;48.782;9.190;2023-06-14T00:02:18;7.40;;;4.25;;
24631;SDS011;59977;48.782;9.190;2023-06-14T00:04:44;9.45;;;4.50;;
24631;SDS011;59977;48.782;9.190;2023-06-14T00:07:13;8.07;;;4.65;;
24631;SDS011;59977;48.782;9.190;2023-06-14T00:09:41;10.23;;;4.15;;
24631;SDS011;59977;48.782;9.190;2023-06-14T00:12:08;7.22;;;4.68;;
24631;SDS011;59977;48.782;9.190;2023-06-14T00:14:34;6.45;;;4.25;;
24631;SDS011;59977;48.782;9.190;2023-06-14T00:17:00;10.65;;;4.35;;
24631;SDS011;59977;48.782;9.190;2023-06-14T00:19:26;6.78;;;4.03;;
24631;SDS011;59977;48.782;9.190;2023-06-14T00:21:52;14.52;;;4.95;;
24631;SDS011;59977;48.782;9.190;2023-06-14T00:24:18;8.40;;;4.28;;
24631;SDS011;59977;48.782;9.190;2023-06-14T00:26:44;13.05;;;4.47;;
24631;SDS011;59977;48.782;9.190;2023-06-14T00:29:10;7.95;;;4.25;;
24631;SDS011;59977;48.782;9.190;2023-06-14T00:31:36;8.48;;;4.18;;
24631;SDS011;59977;48.782;9.190;2023-06-14T00:34:02;12.27;;;4.60;;
24631;SDS011;59977;48.782;9.190;2023-06-14T00:36:28;14.75;;;4.55;;
24631;SDS011;59977;48.782;9.190;2023-06-14T00:38:54;11.40;;;4.20;;
24631;SDS011;59977;48.782;9.190;2023-06-14T00:41:20;8.43;;;4.10;;
24631;SDS011;59977;48.782;9.190;2023-06-14T00:43:46;8.13;;;4.32;;
24631;SDS011;59977;48.782;9.190;2023-06-14T00:46:12;6.78;;;3.80;;
24631;SDS011;59977;48.782;9.190;2023-06-14T00:48:38;10.48;;;4.30;;
24631;SDS011;59977;48.782;9.190;2023-06-14T00:51:05;9.43;;;4.10;;
24631;SDS011;59977;48.782;9.190;2023-06-14T00:53:31;7.80;;;4.22;;
24631;SDS011;59977;48.782;9.190;2023-06-14T00:56:00;10.85;;;4.18;;
24631;SDS011;59977;48.782;9.190;2023-06-14T00:58:26;8.35;;;4.40;;
24631;SDS011;59977;48.782;9.190;2023-06-14T01:00:53;8.32;;;4.43;;
24631;SDS011;59977;48.782;9.190;2023-06-14T01:03:19;9.77;;;4.03;;
24631;SDS011;59977;48.782;9.190;2023-06-14T01:05:47;8.80;;;4.20;;
24631;SDS011;59977;48.782;9.190;2023-06-14T01:08:36;7.97;;;4.22;;
24631;SDS011;59977;48.782;9.190;2023-06-14T01:12:03;8.25;;;3.75;;
24631;SDS011;59977;48.782;9.190;2023-06-14T01:14:31;9.82;;;4.18;;
24631;SDS011;59977;48.782;9.190;2023-06-14T01:16:59;6.00;;;3.58;;
24631;SDS011;59977;48.782;9.190;2023-06-14T01:19:25;6.47;;;4.10;;
24631;SDS011;59977;48.782;9.190;2023-06-14T01:21:53;11.98;;;3.92;;
24631;SDS011;59977;48.782;9.190;2023-06-14T01:24:20;8.23;;;4.28;;
24631;SDS011;59977;48.782;9.190;2023-06-14T01:26:51;9.75;;;4.22;;
24631;SDS011;59977;48.782;9.190;2023-06-14T01:29:20;6.28;;;4.35;;
24631;SDS011;59977;48.782;9.190;2023-06-14T01:31:49;14.82;;;4.25;;
24631;SDS011;59977;48.782;9.190;2023-06-14T01:34:15;11.13;;;4.05;;
24631;SDS011;59977;48.782;9.190;2023-06-14T01:36:42;15.88;;;4.30;;
24631;SDS011;59977;48.782;9.190;2023-06-14T01:39:10;9.48;;;4.28;;
24631;SDS011;59977;48.782;9.190;2023-06-14T01:41:37;9.65;;;4.43;;
24631;SDS011;59977;48.782;9.190;2023-06-14T01:44:03;10.43;;;4.20;;
24631;SDS011;59977;48.782;9.190;2023-06-14T01:46:30;9.63;;;4.38;;
24631;SDS011;59977;48.782;9.190;2023-06-14T01:48:56;8.90;;;4.40;;
24631;SDS011;59977;48.782;9.190;2023-06-14T01:51:22;7.53;;;4.00;;
24631;SDS011;59977;48.782;9.190;2023-06-14T01:53:48;10.52;;;4.20;;
24631;SDS011;59977;48.782;9.190;2023-06-14T01:56:14;8.20;;;4.60;;
24631;SDS011;59977;48.782;9.190;2023-06-14T01:58:40;8.35;;;3.70;;
24631;SDS011;59977;48.782;9.190;2023-06-14T02:01:06;5.85;;;4.10;;
24631;SDS011;59977;48.782;9.190;2023-06-14T02:03:32;6.35;;;3.85;;
24631;SDS011;59977;48.782;9.190;2023-06-14T02:05:59;8.23;;;4.10;;
24631;SDS011;59977;48.782;9.190;2023-06-14T02:08:24;8.20;;;3.83;;
24631;SDS011;59977;48.782;9.190;2023-06-14T02:10:51;8.65;;;4.10;;
24631;SDS011;59977;48.782;9.190;2023-06-14T02:13:16;9.30;;;4.18;;
24631;SDS011;59977;48.782;9.190;2023-06-14T02:15:42;10.70;;;4.07;;
24631;SDS011;59977;48.782;9.190;2023-06-14T02:18:10;14.30;;;4.63;;
24631;SDS011;59977;48.782;9.190;2023-06-14T02:20:36;6.38;;;4.22;;
24631;SDS011;59977;48.782;9.190;2023-06-14T02:23:02;11.13;;;4.07;;
24631;SDS011;59977;48.782;9.190;2023-06-14T02:25:28;9.80;;;4.07;;
24631;SDS011;59977;48.782;9.190;2023-06-14T02:27:55;8.02;;;3.95;;
24631;SDS011;59977;48.782;9.190;2023-06-14T02:30:21;7.82;;;4.07;;
24631;SDS011;59977;48.782;9.190;2023-06-14T02:32:47;11.52;;;4.10;;
24631;SDS011;59977;48.782;9.190;2023-06-14T02:35:13;13.35;;;3.90;;
24631;SDS011;59977;48.782;9.190;2023-06-14T02:37:40;9.80;;;4.30;;
24631;SDS011;59977;48.782;9.190;2023-06-14T02:40:07;7.28;;;3.67;;
24631;SDS011;59977;48.782;9.190;2023-06-14T02:42:34;9.52;;;4.55;;
24631;SDS011;59977;48.782;9.190;2023-06-14T02:45:00;8.57;;;4.10;;
24631;SDS011;59977;48.782;9.190;2023-06-14T02:47:27;9.90;;;3.83;;
24631;SDS011;59977;48.782;9.190;2023-06-14T02:49:53;6.45;;;3.92;;
24631;SDS011;59977;48.782;9.190;2023-06-14T02:52:19;7.63;;;4.32;;
24631;SDS011;59977;48.782;9.190;2023-06-14T02:54:45;9.23;;;4.20;;
24631;SDS011;59977;48.782;9.190;2023-06-14T02:57:12;8.13;;;3.80;;
24631;SDS011;59977;48.782;9.190;2023-06-14T02:59:38;5.97;;;4.07;;
24631;SDS011;59977;48.782;9.190;2023-06-14T03:02:04;7.85;;;4.07;;
24631;SDS011;59977;48.782;9.190;2023-06-14T03:04:30;13.13;;;4.20;;
24631;SDS011;59977;48.782;9.190;2023-06-14T03:07:02;6.13;;;4.38;;
24631;SDS011;59977;48.782;9.190;2023-06-14T03:11:59;9.35;;;3.90;;
24631;SDS011;59977;48.782;9.190;2023-06-14T03:14:26;5.90;;;4.05;;
24631;SDS011;59977;48.782;9.190;2023-06-14T03:16:51;10.13;;;4.10;;
24631;SDS011;59977;48.782;9.190;2023-06-14T03:19:21;7.25;;;4.25;;
24631;SDS011;59977;48.782;9.190;2023-06-14T03:21:47;16.48;;;4.30;;
24631;SDS011;59977;48.782;9.190;2023-06-14T03:24:14;13.30;;;3.95;;
24631;SDS011;59977;48.782;9.190;2023-06-14T03:26:41;12.15;;;4.90;;
24631;SDS011;59977;48.782;9.190;2023-06-14T03:29:07;14.07;;;4.70;;
24631;SDS011;59977;48.782;9.190;2023-06-14T03:31:34;15.10;;;4.65;;
24631;SDS011;59977;48.782;9.190;2023-06-14T03:34:00;12.13;;;4.43;;
24631;SDS011;59977;48.782;9.190;2023-06-14T03:36:26;6.90;;;4.00;;
24631;SDS011;59977;48.782;9.190;2023-06-14T03:38:53;8.45;;;4.88;;
24631;SDS011;59977;48.782;9.190;2023-06-14T03:41:19;11.18;;;4.05;;
24631;SDS011;59977;48.782;9.190;2023-06-14T03:43:45;8.40;;;4.45;;
24631;SDS011;59977;48.782;9.190;2023-06-14T03:46:11;8.27;;;4.28;;
24631;SDS011;59977;48.782;9.190;2023-06-14T03:48:37;10.65;;;4.38;;
24631;SDS011;59977;48.782;9.190;2023-06-14T03:51:03;5.95;;;4.05;;
24631;SDS011;59977;48.782;9.190;2023-06-14T03:53:30;10.02;;;4.43;;
24631;SDS011;59977;48.782;9.190;2023-06-14T03:55:56;8.07;;;4.28;;
24631;SDS011;59977;48.782;9.190;2023-06-14T03:58:22;8.68;;;4.10;;
24631;SDS011;59977;48.782;9.190;2023-06-14T04:00:49;12.93;;;4.50;;
24631;SDS011;59977;48.782;9.190;2023-06-14T04:03:14;8.95;;;4.10;;
24631;SDS011;59977;48.782;9.190;2023-06-14T04:05:41;7.70;;;3.90;;
24631;SDS011;59977;48.782;9.190;2023-06-14T04:08:07;9.65;;;4.30;;
24631;SDS011;59977;48.782;9.190;2023-06-14T04:10:34;8.80;;;4.05;;
24631;SDS011;59977;48.782;9.190;2023-06-14T04:13:00;8.07;;;4.25;;
24631;SDS011;59977;48.782;9.190;2023-06-14T04:15:26;9.63;;;4.70;;
24631;SDS011;59977;48.782;9.190;2023-06-14T04:17:53;9.75;;;4.75;;
24631;SDS011;59977;48.782;9.190;2023-06-14T04:20:22;11.00;;;4.20;;
24631;SDS011;59977;48.782;9.190;2023-06-14T04:22:49;9.15;;;4.32;;
24631;SDS011;59977;48.782;9.190;2023-06-14T04:25:15;11.32;;;4.10;;
24631;SDS011;59977;48.782;9.190;2023-06-14T04:27:42;8.18;;;4.15;;
24631;SDS011;59977;48.782;9.190;2023-06-14T04:30:09;10.85;;;4.10;;
24631;SDS011;59977;48.782;9.190;2023-06-14T04:32:35;8.88;;;4.47;;
24631;SDS011;59977;48.782;9.190;2023-06-14T04:35:05;8.32;;;4.07;;
24631;SDS011;59977;48.782;9.190;2023-06-14T04:37:31;7.82;;;4.30;;
24631;SDS011;59977;48.782;9.190;2023-06-14T04:39:58;6.63;;;4.20;;
24631;SDS011;59977;48.782;9.190;2023-06-14T04:42:24;7.10;;;4.10;;
24631;SDS011;59977;48.782;9.190;2023-06-14T04:44:56;6.38;;;4.03;;
24631;SDS011;59977;48.782;9.190;2023-06-14T04:47:22;7.88;;;4.15;;
24631;SDS011;59977;48.782;9.190;2023-06-14T04:49:54;10.45;;;4.20;;
24631;SDS011;59977;48.782;9.190;2023-06-14T04:52:20;9.57;;;4.32;;
24631;SDS011;59977;48.782;9.190;2023-06-14T04:54:47;10.77;;;4.22;;
24631;SDS011;59977;48.782;9.190;2023-06-14T04:57:13;12.35;;;4.35;;
24631;SDS011;59977;48.782;9.190;2023-06-14T04:59:42;7.57;;;4.30;;
24631;SDS011;59977;48.782;9.190;2023-06-14T05:02:09;9.23;;;4.25;;
24631;SDS011;59977;48.782;9.190;2023-06-14T05:04:35;11.43;;;4.97;;
24631;SDS011;59977;48.782;9.190;2023-06-14T05:07:04;11.75;;;5.03;;
24631;SDS011;59977;48.782;9.190;2023-06-14T05:09:31;7.97;;;4.82;;
24631;SDS011;59977;48.782;9.190;2023-06-14T05:11:57;12.30;;;5.13;;
24631;SDS011;59977;48.782;9.190;2023-06-14T05:14:25;12.93;;;4.90;;
24631;SDS011;59977;48.782;9.190;2023-06-14T05:16:51;10.90;;;4.90;;
24631;SDS011;59977;48.782;9.190;2023-06-14T05:19:18;8.85;;;4.65;;
24631;SDS011;59977;48.782;9.190;2023-06-14T05:21:45;14.00;;;4.68;;
24631;SDS011;59977;48.782;9.190;2023-06-14T05:24:12;18.98;;;4.80;;
24631;SDS011;59977;48.782;9.190;2023-06-14T05:26:38;8.30;;;4.63;;
24631;SDS011;59977;48.782;9.190;2023-06-14T05:29:04;13.80;;;4.55;;
24631;SDS011;59977;48.782;9.190;2023-06-14T05:31:30;10.05;;;4.90;;
24631;SDS011;59977;48.782;9.190;2023-06-14T05:33:57;14.32;;;4.22;;
24631;SDS011;59977;48.782;9.190;2023-06-14T05:36:23;9.90;;;4.70;;
24631;SDS011;59977;48.782;9.190;2023-06-14T05:38:49;14.55;;;4.72;;
24631;SDS011;59977;48.782;9.190;2023-06-14T05:41:16;9.45;;;4.60;;
24631;SDS011;59977;48.782;9.190;2023-06-14T05:43:42;10.45;;;4.68;;
24631;SDS011;59977;48.782;9.190;2023-06-14T05:46:08;13.65;;;4.95;;
24631;SDS011;59977;48.782;9.190;2023-06-14T05:48:33;10.20;;;4.90;;
24631;SDS011;59977;48.782;9.190;2023-06-14T05:50:59;9.77;;;4.68;;
24631;SDS011;59977;48.782;9.190;2023-06-14T05:53:25;11.80;;;4.80;;
24631;SDS011;59977;48.782;9.190;2023-06-14T05:55:51;8.25;;;4.32;;
24631;SDS011;59977;48.782;9.190;2023-06-14T05:58:19;13.52;;;4.40;;
24631;SDS011;59977;48.782;9.190;2023-06-14T06:00:45;13.38;;;5.32;;
24631;SDS011;59977;48.782;9.190;2023-06-14T06:03:11;9.77;;;5.18;;
24631;SDS011;59977;48.782;9.190;2023-06-14T06:05:38;14.75;;;5.32;;
24631;SDS011;59977;48.782;9.190;2023-06-14T06:08:04;10.25;;;4.93;;
24631;SDS011;59977;48.782;9.190;2023-06-14T06:10:30;9.32;;;4.60;;
24631;SDS011;59977;48.782;9.190;2023-06-14T06:12:56;9.52;;;4.55;;
24631;SDS011;59977;48.782;9.190;2023-06-14T06:15:22;10.68;;;4.75;;
24631;SDS011;59977;48.782;9.190;2023-06-14T06:17:48;9.32;;;4.25;;
24631;SDS011;59977;48.782;9.190;2023-06-14T06:20:16;7.82;;;4.38;;
24631;SDS011;59977;48.782;9.190;2023-06-14T06:22:42;10.60;;;4.95;;
24631;SDS011;59977;48.782;9.190;2023-06-14T06:25:08;10.68;;;4.75;;
24631;SDS011;59977;48.782;9.190;2023-06-14T06:27:34;12.43;;;4.40;;
24631;SDS011;59977;48.782;9.190;2023-06-14T06:30:02;13.68;;;4.43;;
24631;SDS011;59977;48.782;9.190;2023-06-14T06:32:28;18.88;;;4.80;;
24631;SDS011;59977;48.782;9.190;2023-06-14T06:34:54;11.70;;;4.70;;
24631;SDS011;59977;48.782;9.190;2023-06-14T06:37:20;13.20;;;4.90;;
24631;SDS011;59977;48.782;9.190;2023-06-14T06:39:46;13.02;;;4.88;;
24631;SDS011;59977;48.782;9.190;2023-06-14T06:42:12;8.95;;;4.60;;
24631;SDS011;59977;48.782;9.190;2023-06-14T06:44:38;13.98;;;4.65;;
24631;SDS011;59977;48.782;9.190;2023-06-14T06:47:04;9.27;;;4.40;;
24631;SDS011;59977;48.782;9.190;2023-06-14T06:49:30;7.95;;;3.83;;
24631;SDS011;59977;48.782;9.190;2023-06-14T06:52:00;10.00;;;4.45;;
24631;SDS011;59977;48.782;9.190;2023-06-14T06:54:27;13.95;;;4.22;;
24631;SDS011;59977;48.782;9.190;2023-06-14T06:56:53;15.27;;;4.57;;
24631;SDS011;59977;48.782;9.190;2023-06-14T06:59:19;12.13;;;4.03;;
24631;SDS011;59977;48.782;9.190;2023-06-14T07:01:45;10.50;;;4.07;;
24631;SDS011;59977;48.782;9.190;2023-06-14T07:04:12;18.88;;;4.00;;
24631;SDS011;59977;48.782;9.190;2023-06-14T07:06:38;13.07;;;4.75;;
24631;SDS011;59977;48.782;9.190;2023-06-14T07:09:04;11.35;;;4.25;;
24631;SDS011;59977;48.782;9.190;2023-06-14T07:11:33;10.80;;;3.95;;
24631;SDS011;59977;48.782;9.190;2023-06-14T07:13:59;10.40;;;4.53;;
24631;SDS011;59977;48.782;9.190;2023-06-14T07:16:25;10.55;;;4.72;;
24631;SDS011;59977;48.782;9.190;2023-06-14T07:18:51;6.82;;;4.38;;
24631;SDS011;59977;48.782;9.190;2023-06-14T07:21:17;9.45;;;4.35;;
24631;SDS011;59977;48.782;9.190;2023-06-14T07:23:43;6.95;;;4.10;;
24631;SDS011;59977;48.782;9.190;2023-06-14T07:26:10;7.88;;;4.18;;
24631;SDS011;59977;48.782;9.190;2023-06-14T07:28:36;10.23;;;3.95;;
24631;SDS011;59977;48.782;9.190;2023-06-14T07:31:02;13.57;;;4.05;;
24631;SDS011;59977;48.782;9.190;2023-06-14T07:33:28;9.50;;;3.80;;
24631;SDS011;59977;48.782;9.190;2023-06-14T07:35:55;13.10;;;4.28;;
24631;SDS011;59977;48.782;9.190;2023-06-14T07:38:21;11.35;;;4.25;;
24631;SDS011;59977;48.782;9.190;2023-06-14T07:40:47;7.55;;;4.57;;
24631;SDS011;59977;48.782;9.190;2023-06-14T07:43:13;9.50;;;4.38;;
24631;SDS011;59977;48.782;9.190;2023-06-14T07:45:39;7.25;;;4.03;;
24631;SDS011;59977;48.782;9.190;2023-06-14T07:48:06;15.40;;;4.47;;
24631;SDS011;59977;48.782;9.190;2023-06-14T07:50:32;14.18;;;4.30;;
24631;SDS011;59977;48.782;9.190;2023-06-14T07:52:58;14.10;;;4.40;;
24631;SDS011;59977;48.782;9.190;2023-06-14T07:55:24;7.43;;;4.22;;
24631;SDS011;59977;48.782;9.190;2023-06-14T07:57:50;13.45;;;4.50;;
24631;SDS011;59977;48.782;9.190;2023-06-14T08:00:17;6.55;;;4.10;;
24631;SDS011;59977;48.782;9.190;2023-06-14T08:02:44;8.20;;;3.95;;
24631;SDS011;59977;48.782;9.190;2023-06-14T08:05:11;15.60;;;4.72;;
24631;SDS011;59977;48.782;9.190;2023-06-14T08:07:38;9.00;;;4.47;;
24631;SDS011;59977;48.782;9.190;2023-06-14T08:10:07;7.13;;;4.18;;
24631;SDS011;59977;48.782;9.190;2023-06-14T08:12:33;15.95;;;4.47;;
24631;SDS011;59977;48.782;9.190;2023-06-14T08:14:59;14.05;;;4.70;;
24631;SDS011;59977;48.782;9.190;2023-06-14T08:17:26;11.82;;;4.72;;
24631;SDS011;59977;48.782;9.190;2023-06-14T08:19:52;9.68;;;4.20;;
24631;SDS011;59977;48.782;9.190;2023-06-14T08:22:22;11.48;;;4.63;;
24631;SDS011;59977;48.782;9.190;2023-06-14T08:24:49;9.85;;;4.10;;
24631;SDS011;59977;48.782;9.190;2023-06-14T08:27:16;11.80;;;4.30;;
24631;SDS011;59977;48.782;9.190;2023-06-14T08:29:42;16.17;;;4.45;;
24631;SDS011;59977;48.782;9.190;2023-06-14T08:32:08;18.23;;;4.85;;
24631;SDS011;59977;48.782;9.190;2023-06-14T08:34:35;13.77;;;3.85;;
24631;SDS011;59977;48.782;9.190;2023-06-14T08:37:01;9.43;;;4.35;;
24631;SDS011;59977;48.782;9.190;2023-06-14T08:39:27;12.18;;;4.03;;
24631;SDS011;59977;48.782;9.190;2023-06-14T08:41:54;16.08;;;4.40;;
24631;SDS011;59977;48.782;9.190;2023-06-14T08:44:20;13.90;;;4.55;;
24631;SDS011;59977;48.782;9.190;2023-06-14T08:46:47;13.13;;;4.22;;
24631;SDS011;59977;48.782;9.190;2023-06-14T08:49:14;12.13;;;3.90;;
24631;SDS011;59977;48.782;9.190;2023-06-14T08:51:42;15.68;;;4.07;;
24631;SDS011;59977;48.782;9.190;2023-06-14T08:54:10;5.82;;;4.07;;
24631;SDS011;59977;48.782;9.190;2023-06-14T08:56:37;17.83;;;4.50;;
24631;SDS011;59977;48.782;9.190;2023-06-14T08:59:06;13.30;;;3.95;;
24631;SDS011;59977;48.782;9.190;2023-06-14T09:01:34;8.90;;;4.30;;
24631;SDS011;59977;48.782;9.190;2023-06-14T09:04:00;14.48;;;4.05;;
24631;SDS011;59977;48.782;9.190;2023-06-14T09:06:27;11.45;;;3.53;;
24631;SDS011;59977;48.782;9.190;2023-06-14T09:11:57;10.05;;;4.05;;
24631;SDS011;59977;48.782;9.190;2023-06-14T09:14:23;11.10;;;4.38;;
24631;SDS011;59977;48.782;9.190;2023-06-14T09:16:53;12.77;;;3.97;;
24631;SDS011;59977;48.782;9.190;2023-06-14T09:19:23;10.88;;;4.22;;
24631;SDS011;59977;48.782;9.190;2023-06-14T09:21:49;10.43;;;3.85;;
24631;SDS011;59977;48.782;9.190;2023-06-14T09:24:17;15.18;;;3.92;;
24631;SDS011;59977;48.782;9.190;2023-06-14T09:26:46;9.32;;;3.60;;
24631;SDS011;59977;48.782;9.190;2023-06-14T09:29:12;12.70;;;4.20;;
24631;SDS011;59977;48.782;9.190;2023-06-14T09:31:38;5.93;;;3.63;;
24631;SDS011;59977;48.782;9.190;2023-06-14T09:34:05;19.13;;;4.05;;
24631;SDS011;59977;48.782;9.190;2023-06-14T09:36:32;14.05;;;4.50;;
24631;SDS011;59977;48.782;9.190;2023-06-14T09:38:59;9.02;;;4.40;;
24631;SDS011;59977;48.782;9.190;2023-06-14T09:43:58;14.35;;;4.05;;
24631;SDS011;59977;48.782;9.190;2023-06-14T09:46:28;14.75;;;3.80;;
24631;SDS011;59977;48.782;9.190;2023-06-14T09:48:55;15.00;;;4.38;;
24631;SDS011;59977;48.782;9.190;2023-06-14T09:51:24;11.13;;;4.25;;
24631;SDS011;59977;48.782;9.190;2023-06-14T09:53:51;10.45;;;3.88;;
24631;SDS011;59977;48.782;9.190;2023-06-14T09:56:27;11.50;;;4.30;;
24631;SDS011;59977;48.782;9.190;2023-06-14T09:58:57;9.88;;;3.90;;
24631;SDS011;59977;48.782;9.190;2023-06-14T10:01:24;11.60;;;4.60;;
24631;SDS011;59977;48.782;9.190;2023-06-14T10:03:55;10.52;;;3.72;;
24631;SDS011;59977;48.782;9.190;2023-06-14T10:06:23;10.20;;;3.95;;
24631;SDS011;59977;48.782;9.190;2023-06-14T10:08:52;8.98;;;3.92;;
24631;SDS011;59977;48.782;9.190;2023-06-14T10:11:21;9.27;;;4.00;;
24631;SDS011;59977;48.782;9.190;2023-06-14T10:13:47;10.25;;;3.15;;
24631;SDS011;59977;48.782;9.190;2023-06-14T10:16:32;10.65;;;3.80;;
24631;SDS011;59977;48.782;9.190;2023-06-14T10:19:03;7.05;;;3.13;;
24631;SDS011;59977;48.782;9.190;2023-06-14T10:21:43;8.55;;;3.83;;
24631;SDS011;59977;48.782;9.190;2023-06-14T10:24:15;16.83;;;3.70;;
24631;SDS011;59977;48.782;9.190;2023-06-14T10:26:51;18.73;;;3.70;;
24631;SDS011;59977;48.782;9.190;2023-06-14T10:29:18;12.77;;;3.83;;
24631;SDS011;59977;48.782;9.190;2023-06-14T10:31:49;14.18;;;4.30;;
24631;SDS011;59977;48.782;9.190;2023-06-14T10:34:31;6.95;;;3.90;;
24631;SDS011;59977;48.782;9.190;2023-06-14T10:37:00;10.32;;;4.65;;
24631;SDS011;59977;48.782;9.190;2023-06-14T10:39:28;10.45;;;3.45;;
24631;SDS011;59977;48.782;9.190;2023-06-14T10:41:55;10.10;;;3.85;;
24631;SDS011;59977;48.782;9.190;2023-06-14T10:46:48;13.38;;;3.92;;
24631;SDS011;59977;48.782;9.190;2023-06-14T10:49:36;10.80;;;3.65;;
24631;SDS011;59977;48.782;9.190;2023-06-14T10:52:02;6.07;;;3.53;;
24631;SDS011;59977;48.782;9.190;2023-06-14T10:54:31;12.57;;;4.00;;
24631;SDS011;59977;48.782;9.190;2023-06-14T10:56:58;11.32;;;3.30;;
24631;SDS011;59977;48.782;9.190;2023-06-14T10:59:24;7.57;;;3.55;;
24631;SDS011;59977;48.782;9.190;2023-06-14T11:04:16;8.52;;;3.35;;
24631;SDS011;59977;48.782;9.190;2023-06-14T11:06:48;11.18;;;3.60;;
24631;SDS011;59977;48.782;9.190;2023-06-14T11:12:01;8.77;;;3.53;;
24631;SDS011;59977;48.782;9.190;2023-06-14T11:14:31;7.43;;;3.28;;
24631;SDS011;59977;48.782;9.190;2023-06-14T11:16:57;7.65;;;3.25;;
24631;SDS011;59977;48.782;9.190;2023-06-14T11:19:23;14.48;;;3.78;;
24631;SDS011;59977;48.782;9.190;2023-06-14T11:21:50;6.05;;;3.45;;
24631;SDS011;59977;48.782;9.190;2023-06-14T11:24:16;7.63;;;3.88;;
24631;SDS011;59977;48.782;9.190;2023-06-14T11:26:42;13.75;;;3.70;;
24631;SDS011;59977;48.782;9.190;2023-06-14T11:29:08;10.88;;;3.72;;
24631;SDS011;59977;48.782;9.190;2023-06-14T11:31:35;8.50;;;3.95;;
24631;SDS011;59977;48.782;9.190;2023-06-14T11:34:01;12.13;;;3.70;;
24631;SDS011;59977;48.782;9.190;2023-06-14T11:36:29;9.20;;;3.83;;
24631;SDS011;59977;48.782;9.190;2023-06-14T11:39:03;9.05;;;3.38;;
24631;SDS011;59977;48.782;9.190;2023-06-14T11:41:37;8.23;;;3.58;;
24631;SDS011;59977;48.782;9.190;2023-06-14T11:44:04;12.68;;;4.00;;
24631;SDS011;59977;48.782;9.190;2023-06-14T11:46:31;4.80;;;3.05;;
24631;SDS011;59977;48.782;9.190;2023-06-14T11:48:57;10.18;;;3.30;;
24631;SDS011;59977;48.782;9.190;2023-06-14T11:51:23;10.05;;;3.60;;
24631;SDS011;59977;48.782;9.190;2023-06-14T11:53:50;7.22;;;3.25;;
24631;SDS011;59977;48.782;9.190;2023-06-14T11:56:16;7.95;;;3.35;;
24631;SDS011;59977;48.782;9.190;2023-06-14T11:58:43;12.95;;;3.50;;
24631;SDS011;59977;48.782;9.190;2023-06-14T12:01:09;6.30;;;3.38;;
24631;SDS011;59977;48.782;9.190;2023-06-14T12:03:46;13.70;;;3.75;;
24631;SDS011;59977;48.782;9.190;2023-06-14T12:06:14;6.82;;;3.53;;
24631;SDS011;59977;48.782;9.190;2023-06-14T12:08:42;11.00;;;3.25;;
24631;SDS011;59977;48.782;9.190;2023-06-14T12:11:13;13.25;;;3.35;;
24631;SDS011;59977;48.782;9.190;2023-06-14T12:13:41;8.77;;;3.70;;
24631;SDS011;59977;48.782;9.190;2023-06-14T12:16:08;7.60;;;3.25;;
24631;SDS011;59977;48.782;9.190;2023-06-14T12:18:38;9.63;;;3.53;;
24631;SDS011;59977;48.782;9.190;2023-06-14T12:21:06;8.40;;;3.50;;
24631;SDS011;59977;48.782;9.190;2023-06-14T12:23:39;12.95;;;3.70;;
24631;SDS011;59977;48.782;9.190;2023-06-14T12:26:05;12.65;;;3.35;;
24631;SDS011;59977;48.782;9.190;2023-06-14T12:28:31;12.90;;;3.40;;
24631;SDS011;59977;48.782;9.190;2023-06-14T12:30:58;7.55;;;3.58;;
24631;SDS011;59977;48.782;9.190;2023-06-14T12:33:24;13.15;;;4.00;;
24631;SDS011;59977;48.782;9.190;2023-06-14T12:35:51;7.50;;;3.28;;
24631;SDS011;59977;48.782;9.190;2023-06-14T12:38:17;14.95;;;3.20;;
24631;SDS011;59977;48.782;9.190;2023-06-14T12:40:43;9.50;;;3.65;;
24631;SDS011;59977;48.782;9.190;2023-06-14T12:43:10;7.72;;;3.45;;
24631;SDS011;59977;48.782;9.190;2023-06-14T12:45:36;7.72;;;3.28;;
24631;SDS011;59977;48.782;9.190;2023-06-14T12:48:02;8.70;;;3.47;;
24631;SDS011;59977;48.782;9.190;2023-06-14T12:50:29;10.30;;;3.53;;
24631;SDS011;59977;48.782;9.190;2023-06-14T12:52:55;10.82;;;3.50;;
24631;SDS011;59977;48.782;9.190;2023-06-14T12:55:21;8.65;;;3.47;;
24631;SDS011;59977;48.782;9.190;2023-06-14T12:57:48;13.35;;;3.35;;
24631;SDS011;59977;48.782;9.190;2023-06-14T13:00:15;12.80;;;3.53;;
24631;SDS011;59977;48.782;9.190;2023-06-14T13:02:42;6.45;;;3.33;;
24631;SDS011;59977;48.782;9.190;2023-06-14T13:05:08;7.57;;;3.55;;
24631;SDS011;59977;48.782;9.190;2023-06-14T13:07:34;5.13;;;3.20;;
24631;SDS011;59977;48.782;9.190;2023-06-14T13:10:01;7.10;;;3.10;;
24631;SDS011;59977;48.782;9.190;2023-06-14T13:12:27;11.10;;;3.55;;
24631;SDS011;59977;48.782;9.190;2023-06-14T13:14:53;8.13;;;3.50;;
24631;SDS011;59977;48.782;9.190;2023-06-14T13:17:19;5.22;;;3.10;;
24631;SDS011;59977;48.782;9.190;2023-06-14T13:19:46;5.28;;;3.40;;
24631;SDS011;59977;48.782;9.190;2023-06-14T13:22:12;7.05;;;2.97;;
24631;SDS011;59977;48.782;9.190;2023-06-14T13:24:38;6.93;;;3.15;;
24631;SDS011;59977;48.782;9.190;2023-06-14T13:27:04;7.70;;;3.17;;
24631;SDS011;59977;48.782;9.190;2023-06-14T13:29:32;7.82;;;3.33;;
24631;SDS011;59977;48.782;9.190;2023-06-14T13:32:00;8.18;;;3.08;;
24631;SDS011;59977;48.782;9.190;2023-06-14T13:34:27;7.80;;;3.00;;
24631;SDS011;59977;48.782;9.190;2023-06-14T13:36:53;7.13;;;3.80;;
24631;SDS011;59977;48.782;9.190;2023-06-14T13:39:19;6.97;;;2.85;;
24631;SDS011;59977;48.782;9.190;2023-06-14T13:41:45;17.08;;;3.10;;
24631;SDS011;59977;48.782;9.190;2023-06-14T13:44:11;5.57;;;3.22;;
24631;SDS011;59977;48.782;9.190;2023-06-14T13:46:40;7.07;;;3.13;;
24631;SDS011;59977;48.782;9.190;2023-06-14T13:49:07;12.35;;;3.35;;
24631;SDS011;59977;48.782;9.190;2023-06-14T13:51:33;11.52;;;3.10;;
24631;SDS011;59977;48.782;9.190;2023-06-14T13:54:00;9.55;;;2.92;;
24631;SDS011;59977;48.782;9.190;2023-06-14T13:56:26;8.43;;;3.40;;
24631;SDS011;59977;48.782;9.190;2023-06-14T13:58:53;6.07;;;3.00;;
24631;SDS011;59977;48.782;9.190;2023-06-14T14:01:19;9.50;;;3.38;;
24631;SDS011;59977;48.782;9.190;2023-06-14T14:03:46;7.82;;;2.78;;
24631;SDS011;59977;48.782;9.190;2023-06-14T14:06:12;8.15;;;3.00;;
24631;SDS011;59977;48.782;9.190;2023-06-14T14:08:38;5.78;;;3.20;;
24631;SDS011;59977;48.782;9.190;2023-06-14T14:11:05;8.23;;;3.30;;
24631;SDS011;59977;48.782;9.190;2023-06-14T14:13:31;7.10;;;3.30;;
24631;SDS011;59977;48.782;9.190;2023-06-14T14:15:57;8.27;;;3.35;;
24631;SDS011;59977;48.782;9.190;2023-06-14T14:18:24;6.60;;;2.95;;
24631;SDS011;59977;48.782;9.190;2023-06-14T14:20:50;6.45;;;3.05;;
24631;SDS011;59977;48.782;9.190;2023-06-14T14:23:16;7.60;;;3.30;;
24631;SDS011;59977;48.782;9.190;2023-06-14T14:25:42;7.60;;;2.85;;
24631;SDS011;59977;48.782;9.190;2023-06-14T14:28:08;6.45;;;3.20;;
24631;SDS011;59977;48.782;9.190;2023-06-14T14:30:34;7.88;;;2.90;;
24631;SDS011;59977;48.782;9.190;2023-06-14T14:33:03;8.63;;;3.17;;
24631;SDS011;59977;48.782;9.190;2023-06-14T14:35:29;5.13;;;2.97;;
24631;SDS011;59977;48.782;9.190;2023-06-14T14:37:55;6.45;;;2.97;;
24631;SDS011;59977;48.782;9.190;2023-06-14T14:40:21;12.48;;;3.10;;
24631;SDS011;59977;48.782;9.190;2023-06-14T14:42:47;6.75;;;3.10;;
24631;SDS011;59977;48.782;9.190;2023-06-14T14:45:13;12.15;;;3.40;;
24631;SDS011;59977;48.782;9.190;2023-06-14T14:47:39;9.25;;;3.33;;
24631;SDS011;59977;48.782;9.190;2023-06-14T14:50:05;7.80;;;3.03;;
24631;SDS011;59977;48.782;9.190;2023-06-14T14:52:35;4.18;;;2.75;;
24631;SDS011;59977;48.782;9.190;2023-06-14T14:55:01;7.90;;;3.22;;
24631;SDS011;59977;48.782;9.190;2023-06-14T14:57:27;10.20;;;2.88;;